createdAt,value
2018-12-21T00:01:42.969Z,2.10
2018-12-21T00:04:11.347Z,1.90
2018-12-21T00:06:39.727Z,1.90
2018-12-21T00:09:08.093Z,1.80
2018-12-21T00:11:36.478Z,1.50
2018-12-21T00:14:04.846Z,1.73
2018-12-21T00:16:33.513Z,1.70
2018-12-21T00:19:01.900Z,2.20
2018-12-21T00:21:30.257Z,2.00
2018-12-21T00:23:58.653Z,1.70
2018-12-21T00:26:26.999Z,1.60
2018-12-21T00:28:55.503Z,1.60
2018-12-21T00:31:29.094Z,1.80
2018-12-21T00:34:02.866Z,1.83
2018-12-21T00:36:36.484Z,1.77
2018-12-21T00:39:12.035Z,1.73
2018-12-21T00:41:39.642Z,1.50
2018-12-21T00:44:17.028Z,1.60
2018-12-21T00:46:49.815Z,1.60
2018-12-21T00:49:18.576Z,1.60
2018-12-21T00:51:46.928Z,1.90
2018-12-21T00:54:15.414Z,2.03
2018-12-21T00:56:43.767Z,1.57
2018-12-21T00:59:12.137Z,1.80
2018-12-21T01:01:40.497Z,1.63
2018-12-21T01:04:08.870Z,1.87
2018-12-21T01:06:37.437Z,1.80
2018-12-21T01:09:06.409Z,1.70
2018-12-21T01:11:34.911Z,1.50
2018-12-21T01:14:03.469Z,1.50
2018-12-21T01:16:31.956Z,1.70
2018-12-21T01:19:00.399Z,2.00
2018-12-21T01:21:29.765Z,1.93
2018-12-21T01:23:58.164Z,1.70
2018-12-21T01:26:26.524Z,1.47
2018-12-21T01:28:54.944Z,1.70
2018-12-21T01:31:23.316Z,1.73
2018-12-21T01:33:51.696Z,1.50
2018-12-21T01:36:20.054Z,1.90
2018-12-21T01:38:48.434Z,2.43
2018-12-21T01:41:16.807Z,1.63
2018-12-21T01:43:45.196Z,1.87
2018-12-21T01:46:13.552Z,1.53
2018-12-21T01:48:41.956Z,1.83
2018-12-21T01:51:10.377Z,1.87
2018-12-21T01:53:38.749Z,1.50
2018-12-21T01:56:07.165Z,2.37
2018-12-21T01:58:35.532Z,1.77
2018-12-21T02:01:03.891Z,1.90
2018-12-21T02:03:32.257Z,1.80
2018-12-21T02:06:00.676Z,1.87
2018-12-21T02:08:29.050Z,1.77
2018-12-21T02:10:57.431Z,1.80
2018-12-21T02:13:25.790Z,2.07
2018-12-21T02:15:54.169Z,1.67
2018-12-21T02:18:22.537Z,1.50
2018-12-21T02:20:51.081Z,1.70
2018-12-21T02:23:19.436Z,1.57
2018-12-21T02:25:47.820Z,1.90
2018-12-21T02:28:16.166Z,1.77
2018-12-21T02:30:44.564Z,1.80
2018-12-21T02:33:12.952Z,1.87
2018-12-21T02:35:41.337Z,1.80
2018-12-21T02:38:09.690Z,1.90
2018-12-21T02:40:38.089Z,1.67
2018-12-21T02:43:06.452Z,1.50
2018-12-21T02:45:34.841Z,1.90
2018-12-21T02:48:03.333Z,1.73
2018-12-21T02:50:31.696Z,2.00
2018-12-21T02:53:00.122Z,1.70
2018-12-21T02:55:28.616Z,1.97
2018-12-21T02:57:56.975Z,1.70
2018-12-21T03:00:25.349Z,1.93
2018-12-21T03:02:53.702Z,1.83
2018-12-21T03:05:22.076Z,2.10
2018-12-21T03:07:50.552Z,1.70
2018-12-21T03:10:18.941Z,1.90
2018-12-21T03:12:47.304Z,2.17
2018-12-21T03:15:15.662Z,1.80
2018-12-21T03:17:44.077Z,1.97
2018-12-21T03:20:12.441Z,1.70
2018-12-21T03:22:40.823Z,2.13
2018-12-21T03:25:09.179Z,1.70
2018-12-21T03:27:37.547Z,1.80
2018-12-21T03:30:06.526Z,2.20
2018-12-21T03:32:35.049Z,1.97
2018-12-21T03:35:03.850Z,2.10
2018-12-21T03:37:32.226Z,1.80
2018-12-21T03:40:00.588Z,3.03
2018-12-21T03:42:28.962Z,1.70
2018-12-21T03:44:57.308Z,1.80
2018-12-21T03:47:25.674Z,1.70
2018-12-21T03:49:54.024Z,1.70
2018-12-21T03:52:24.502Z,1.80
2018-12-21T03:54:52.795Z,1.90
2018-12-21T03:57:21.164Z,1.53
2018-12-21T03:59:49.516Z,1.50
2018-12-21T04:02:17.895Z,1.80
2018-12-21T04:04:46.263Z,1.57
2018-12-21T04:07:14.629Z,1.60
2018-12-21T04:09:43.025Z,1.40
2018-12-21T04:12:11.399Z,1.70
2018-12-21T04:14:39.754Z,1.40
2018-12-21T04:17:08.121Z,1.70
2018-12-21T04:19:36.497Z,1.50
2018-12-21T04:22:04.889Z,1.60
2018-12-21T04:24:33.245Z,1.40
2018-12-21T04:27:01.616Z,1.53
2018-12-21T04:29:30.817Z,1.30
2018-12-21T04:31:59.197Z,1.43
2018-12-21T04:34:27.579Z,1.50
2018-12-21T04:36:55.941Z,1.30
2018-12-21T04:39:24.328Z,1.40
2018-12-21T04:41:52.698Z,1.70
2018-12-21T04:44:21.056Z,1.33
2018-12-21T04:46:49.401Z,1.70
2018-12-21T04:49:17.872Z,1.43
2018-12-21T04:51:46.222Z,1.57
2018-12-21T04:54:14.623Z,1.30
2018-12-21T04:56:42.987Z,1.20
2018-12-21T04:59:11.354Z,1.57
2018-12-21T05:01:39.818Z,1.43
2018-12-21T05:04:08.189Z,1.37
2018-12-21T05:06:36.768Z,1.67
2018-12-21T05:09:06.444Z,1.40
2018-12-21T05:11:34.805Z,1.60
2018-12-21T05:14:03.408Z,1.30
2018-12-21T05:16:31.793Z,1.30
2018-12-21T05:19:00.196Z,1.37
2018-12-21T05:21:28.582Z,1.27
2018-12-21T05:23:56.980Z,1.33
2018-12-21T05:26:25.328Z,1.50
2018-12-21T05:28:53.703Z,1.53
2018-12-21T05:31:28.237Z,1.80
2018-12-21T05:33:52.495Z,1.70
2018-12-21T05:36:20.978Z,1.23
2018-12-21T05:38:49.353Z,1.60
2018-12-21T05:41:17.704Z,1.60
2018-12-21T05:43:46.088Z,1.23
2018-12-21T05:46:14.453Z,1.60
2018-12-21T05:48:42.815Z,1.33
2018-12-21T05:51:11.196Z,1.20
2018-12-21T05:53:39.572Z,1.50
2018-12-21T05:56:07.917Z,1.33
2018-12-21T05:58:36.321Z,1.50
2018-12-21T06:01:04.711Z,1.30
2018-12-21T06:03:33.097Z,2.30
2018-12-21T06:06:01.476Z,1.50
2018-12-21T06:08:29.835Z,1.13
2018-12-21T06:10:58.220Z,1.43
2018-12-21T06:13:26.572Z,1.70
2018-12-21T06:15:55.153Z,1.30
2018-12-21T06:18:23.551Z,1.60
2018-12-21T06:20:52.053Z,1.03
2018-12-21T06:23:20.404Z,1.03
2018-12-21T06:25:48.769Z,0.90
2018-12-21T06:28:17.119Z,1.10
2018-12-21T06:30:45.511Z,1.30
2018-12-21T06:33:13.852Z,1.23
2018-12-21T06:35:42.248Z,1.00
2018-12-21T06:38:10.607Z,1.37
2018-12-21T06:40:38.971Z,1.20
2018-12-21T06:43:07.336Z,1.10
2018-12-21T06:45:35.869Z,1.10
2018-12-21T06:48:04.349Z,0.93
2018-12-21T06:50:32.736Z,0.97
2018-12-21T06:53:01.092Z,1.27
2018-12-21T06:55:29.485Z,1.30
2018-12-21T06:57:57.837Z,1.33
2018-12-21T07:00:26.281Z,1.20
2018-12-21T07:02:54.687Z,0.90
2018-12-21T07:05:23.096Z,1.40
2018-12-21T07:07:51.467Z,0.90
2018-12-21T07:10:20.028Z,0.90
2018-12-21T07:12:48.438Z,0.83
2018-12-21T07:15:16.815Z,1.27
2018-12-21T07:17:45.220Z,1.00
2018-12-21T07:20:13.628Z,1.00
2018-12-21T07:22:42.084Z,0.80
2018-12-21T07:25:10.494Z,0.90
2018-12-21T07:27:38.866Z,1.10
2018-12-21T07:30:10.100Z,1.43
2018-12-21T07:32:38.449Z,1.10
2018-12-21T07:35:09.788Z,0.93
2018-12-21T07:37:38.402Z,1.07
2018-12-21T07:40:08.244Z,0.90
2018-12-21T07:42:36.592Z,1.10
2018-12-21T07:45:05.600Z,0.87
2018-12-21T07:47:33.993Z,1.20
2018-12-21T07:50:02.381Z,1.10
2018-12-21T07:52:30.762Z,0.70
2018-12-21T07:54:59.149Z,1.00
2018-12-21T07:57:27.601Z,1.10
2018-12-21T07:59:55.968Z,0.90
2018-12-21T08:02:24.381Z,0.80
2018-12-21T08:04:52.767Z,1.40
2018-12-21T08:07:21.153Z,1.20
2018-12-21T08:09:49.541Z,1.00
2018-12-21T08:12:17.960Z,1.00
2018-12-21T08:14:46.320Z,1.37
2018-12-21T08:17:14.712Z,1.30
2018-12-21T08:19:43.121Z,1.40
2018-12-21T08:22:11.553Z,1.10
2018-12-21T08:24:39.940Z,1.00
2018-12-21T08:27:08.357Z,0.97
2018-12-21T08:29:36.721Z,0.90
2018-12-21T08:32:05.157Z,1.00
2018-12-21T08:34:33.524Z,1.10
2018-12-21T08:37:01.911Z,1.30
2018-12-21T08:39:30.276Z,1.40
2018-12-21T08:41:58.701Z,1.10
2018-12-21T08:44:33.664Z,1.10
2018-12-21T08:47:02.060Z,0.90
2018-12-21T08:49:32.304Z,0.90
2018-12-21T08:52:00.901Z,0.90
2018-12-21T08:54:29.283Z,1.00
2018-12-21T08:56:57.716Z,1.20
2018-12-21T08:59:26.109Z,1.10
2018-12-21T09:01:54.741Z,1.50
2018-12-21T09:04:23.120Z,1.23
2018-12-21T09:06:51.501Z,1.40
2018-12-21T09:09:19.905Z,1.00
2018-12-21T09:11:48.260Z,1.37
2018-12-21T09:14:16.648Z,1.10
2018-12-21T09:16:45.041Z,1.50
2018-12-21T09:19:13.444Z,1.27
2018-12-21T09:21:41.794Z,1.27
2018-12-21T09:24:10.217Z,1.40
2018-12-21T09:26:38.657Z,2.20
2018-12-21T09:29:07.031Z,0.90
2018-12-21T09:31:37.587Z,2.10
2018-12-21T09:34:06.361Z,0.97
2018-12-21T09:36:34.789Z,0.93
2018-12-21T09:39:04.046Z,1.10
2018-12-21T09:41:32.488Z,0.90
2018-12-21T09:44:00.862Z,0.70
2018-12-21T09:46:29.215Z,0.80
2018-12-21T09:48:57.689Z,0.90
2018-12-21T09:51:26.058Z,1.00
2018-12-21T09:53:54.615Z,0.80
2018-12-21T09:56:22.985Z,1.20
2018-12-21T09:58:51.407Z,0.90
2018-12-21T10:01:19.820Z,1.00
2018-12-21T10:03:48.235Z,0.80
2018-12-21T10:06:16.632Z,0.80
2018-12-21T10:08:45.140Z,0.77
2018-12-21T10:11:13.492Z,0.73
2018-12-21T10:13:41.923Z,0.77
2018-12-21T10:16:10.332Z,0.70
2018-12-21T10:18:38.785Z,0.73
2018-12-21T10:21:07.201Z,0.70
2018-12-21T10:23:35.626Z,1.00
2018-12-21T10:26:04.039Z,0.90
2018-12-21T10:28:32.571Z,0.80
2018-12-21T10:31:00.960Z,0.70
2018-12-21T10:33:29.331Z,0.83
2018-12-21T10:35:57.716Z,0.70
2018-12-21T10:38:26.136Z,0.83
2018-12-21T10:40:54.766Z,1.03
2018-12-21T10:43:23.147Z,0.80
2018-12-21T10:45:51.581Z,1.37
2018-12-21T10:48:19.988Z,1.17
2018-12-21T10:50:48.395Z,0.90
2018-12-21T10:53:16.779Z,1.20
2018-12-21T10:55:45.165Z,1.00
2018-12-21T10:58:13.533Z,1.10
2018-12-21T11:00:41.923Z,1.30
2018-12-21T11:03:10.349Z,1.10
2018-12-21T11:05:38.765Z,1.43
2018-12-21T11:08:07.127Z,0.90
2018-12-21T11:10:35.521Z,0.70
2018-12-21T11:13:03.904Z,1.00
2018-12-21T11:15:32.322Z,0.93
2018-12-21T11:18:00.717Z,1.20
2018-12-21T11:20:29.175Z,0.87
2018-12-21T11:22:57.557Z,1.00
2018-12-21T11:25:25.936Z,1.00
2018-12-21T11:27:54.599Z,1.20
2018-12-21T11:30:23.172Z,1.30
2018-12-21T11:32:51.593Z,1.10
2018-12-21T11:35:20.106Z,1.80
2018-12-21T11:37:48.513Z,1.70
2018-12-21T11:40:17.045Z,1.90
2018-12-21T11:42:45.465Z,2.20
2018-12-21T11:45:13.878Z,1.53
2018-12-21T11:47:42.302Z,1.10
2018-12-21T11:50:11.633Z,1.30
2018-12-21T11:52:40.112Z,1.00
2018-12-21T11:55:08.553Z,2.10
2018-12-21T11:57:37.009Z,2.20
2018-12-21T12:00:06.960Z,2.30
2018-12-21T12:02:35.369Z,3.23
2018-12-21T12:05:03.968Z,2.87
2018-12-21T12:07:32.393Z,4.20
2018-12-21T12:10:00.833Z,3.30
2018-12-21T12:12:29.204Z,3.13
2018-12-21T12:14:57.687Z,4.23
2018-12-21T12:17:26.294Z,3.90
2018-12-21T12:19:55.809Z,5.07
2018-12-21T12:22:24.287Z,4.43
2018-12-21T12:24:53.178Z,3.00
2018-12-21T12:27:22.790Z,2.97
2018-12-21T12:29:51.474Z,3.50
2018-12-21T12:32:19.883Z,3.87
2018-12-21T12:34:48.269Z,2.07
2018-12-21T12:37:16.707Z,3.50
2018-12-21T12:39:45.316Z,2.30
2018-12-21T12:42:13.733Z,1.70
2018-12-21T12:44:42.171Z,1.50
2018-12-21T12:47:10.677Z,1.10
2018-12-21T12:49:39.357Z,0.80
2018-12-21T12:52:07.763Z,0.50
2018-12-21T12:54:36.299Z,0.60
2018-12-21T12:57:05.508Z,0.70
2018-12-21T12:59:34.019Z,0.80
2018-12-21T13:02:02.527Z,0.60
2018-12-21T13:04:30.971Z,0.90
2018-12-21T13:06:59.404Z,0.77
2018-12-21T13:09:27.808Z,0.53
2018-12-21T13:11:56.248Z,0.87
2018-12-21T13:14:24.828Z,0.43
2018-12-21T13:16:53.243Z,0.70
2018-12-21T13:19:23.340Z,0.60
2018-12-21T13:21:51.911Z,0.60
2018-12-21T13:24:20.304Z,0.50
2018-12-21T13:26:48.745Z,0.40
2018-12-21T13:29:17.140Z,0.70
2018-12-21T13:31:45.577Z,0.50
2018-12-21T13:34:14.049Z,0.70
2018-12-21T13:36:42.451Z,0.93
2018-12-21T13:39:10.878Z,0.60
2018-12-21T13:41:39.332Z,0.80
2018-12-21T13:44:07.721Z,0.40
2018-12-21T13:46:36.144Z,0.80
2018-12-21T13:49:05.366Z,0.47
2018-12-21T13:51:34.277Z,0.70
2018-12-21T13:54:02.852Z,0.50
2018-12-21T13:56:31.425Z,0.73
2018-12-21T13:58:59.855Z,0.50
2018-12-21T14:01:28.298Z,0.50
2018-12-21T14:03:57.065Z,0.50
2018-12-21T14:06:25.556Z,0.50
2018-12-21T14:08:53.952Z,0.60
2018-12-21T14:11:22.362Z,0.80
2018-12-21T14:13:50.786Z,1.37
2018-12-21T14:16:19.244Z,1.80
2018-12-21T14:18:47.668Z,3.30
2018-12-21T14:21:16.073Z,3.27
2018-12-21T14:23:44.441Z,2.20
2018-12-21T14:26:12.960Z,2.43
2018-12-21T14:28:42.595Z,3.13
2018-12-21T14:31:11.248Z,3.30
2018-12-21T14:33:39.665Z,1.70
2018-12-21T14:36:08.151Z,0.70
2018-12-21T14:38:36.558Z,1.00
2018-12-21T14:41:05.037Z,1.50
2018-12-21T14:43:33.449Z,2.40
2018-12-21T14:46:01.875Z,3.63
2018-12-21T14:48:30.317Z,2.93
2018-12-21T14:50:58.783Z,3.27
2018-12-21T14:53:27.259Z,3.40
2018-12-21T14:55:55.684Z,3.27
2018-12-21T14:58:24.132Z,1.97
2018-12-21T15:00:52.544Z,1.40
2018-12-21T15:03:20.947Z,1.50
2018-12-21T15:05:49.803Z,0.80
2018-12-21T15:08:18.245Z,0.97
2018-12-21T15:10:46.664Z,1.03
2018-12-21T15:13:15.208Z,0.63
2018-12-21T15:15:43.610Z,1.20
2018-12-21T15:18:12.066Z,1.60
2018-12-21T15:20:40.619Z,0.97
2018-12-21T15:23:09.131Z,1.03
2018-12-21T15:25:45.904Z,1.40
2018-12-21T15:28:08.021Z,1.50
2018-12-21T15:30:36.427Z,0.80
2018-12-21T15:33:04.869Z,1.10
2018-12-21T15:35:33.269Z,0.57
2018-12-21T15:38:01.670Z,0.80
2018-12-21T15:40:30.134Z,1.30
2018-12-21T15:42:58.521Z,0.80
2018-12-21T15:45:26.997Z,1.70
2018-12-21T15:47:55.382Z,1.40
2018-12-21T15:50:23.789Z,1.17
2018-12-21T15:52:52.561Z,0.63
2018-12-21T15:55:21.164Z,0.90
2018-12-21T15:57:51.378Z,0.70
2018-12-21T16:00:19.914Z,0.77
2018-12-21T16:02:51.656Z,1.00
2018-12-21T16:05:20.052Z,0.70
2018-12-21T16:07:48.491Z,0.63
2018-12-21T16:10:17.094Z,0.70
2018-12-21T16:12:45.588Z,0.80
2018-12-21T16:15:14.148Z,0.63
2018-12-21T16:17:42.656Z,1.00
2018-12-21T16:20:13.692Z,0.80
2018-12-21T16:22:42.558Z,0.77
2018-12-21T16:25:11.390Z,0.90
2018-12-21T16:27:40.008Z,0.60
2018-12-21T16:30:11.449Z,1.40
2018-12-21T16:32:39.961Z,3.27
2018-12-21T16:35:08.614Z,6.23
2018-12-21T16:37:37.443Z,3.90
2018-12-21T16:40:07.721Z,1.80
2018-12-21T16:42:36.324Z,2.00
2018-12-21T16:45:05.724Z,1.80
2018-12-21T16:47:34.179Z,2.57
2018-12-21T16:50:02.772Z,1.77
2018-12-21T16:52:31.161Z,1.20
2018-12-21T16:54:59.583Z,1.00
2018-12-21T16:57:27.985Z,0.63
2018-12-21T16:59:56.404Z,1.47
2018-12-21T17:02:24.825Z,1.80
2018-12-21T17:04:53.276Z,2.07
2018-12-21T17:07:22.029Z,1.93
2018-12-21T17:09:50.430Z,1.00
2018-12-21T17:12:18.805Z,0.50
2018-12-21T17:14:47.253Z,0.80
2018-12-21T17:17:15.704Z,0.80
2018-12-21T17:19:44.671Z,0.53
2018-12-21T17:22:13.173Z,0.50
2018-12-21T17:24:41.672Z,0.67
2018-12-21T17:27:10.064Z,1.57
2018-12-21T17:29:38.473Z,1.30
2018-12-21T17:32:06.984Z,1.60
2018-12-21T17:34:35.525Z,1.70
2018-12-21T17:37:03.981Z,1.23
2018-12-21T17:39:32.466Z,1.20
2018-12-21T17:42:00.882Z,0.90
2018-12-21T17:44:29.242Z,0.77
2018-12-21T17:46:57.661Z,0.53
2018-12-21T17:49:26.173Z,0.90
2018-12-21T17:52:01.358Z,0.90
2018-12-21T17:54:24.983Z,0.83
2018-12-21T17:56:53.481Z,1.70
2018-12-21T17:59:21.973Z,0.70
2018-12-21T18:01:50.516Z,0.60
2018-12-21T18:04:22.700Z,0.60
2018-12-21T18:06:51.128Z,1.00
2018-12-21T18:09:20.473Z,0.70
2018-12-21T18:11:56.993Z,0.90
2018-12-21T18:14:19.352Z,0.90
2018-12-21T18:16:47.834Z,1.10
2018-12-21T18:19:16.236Z,0.90
2018-12-21T18:21:51.007Z,1.50
2018-12-21T18:24:19.419Z,1.43
2018-12-21T18:26:47.846Z,1.00
2018-12-21T18:29:16.248Z,1.27
2018-12-21T18:31:50.625Z,0.77
2018-12-21T18:34:24.875Z,1.23
2018-12-21T18:37:00.074Z,1.67
2018-12-21T18:39:28.473Z,1.10
2018-12-21T18:41:56.937Z,1.40
2018-12-21T18:44:25.359Z,1.00
2018-12-21T18:46:53.746Z,0.90
2018-12-21T18:49:22.165Z,1.40
2018-12-21T18:51:50.569Z,1.00
2018-12-21T18:54:18.988Z,1.00
2018-12-21T18:56:56.077Z,0.70
2018-12-21T18:59:24.514Z,1.70
2018-12-21T19:01:53.095Z,0.90
2018-12-21T19:04:21.610Z,0.80
2018-12-21T19:06:49.992Z,1.03
2018-12-21T19:09:18.448Z,1.13
2018-12-21T19:11:46.835Z,1.07
2018-12-21T19:14:15.483Z,0.63
2018-12-21T19:16:43.936Z,0.90
2018-12-21T19:19:12.355Z,0.70
2018-12-21T19:21:40.743Z,0.70
2018-12-21T19:24:09.177Z,0.90
2018-12-21T19:26:37.569Z,1.33
2018-12-21T19:29:05.963Z,0.80
2018-12-21T19:31:34.772Z,0.87
2018-12-21T19:34:03.428Z,0.90
2018-12-21T19:36:31.825Z,0.53
2018-12-21T19:39:00.262Z,0.70
2018-12-21T19:41:28.624Z,1.00
2018-12-21T19:43:57.528Z,0.87
2018-12-21T19:46:25.919Z,0.87
2018-12-21T19:48:54.291Z,1.27
2018-12-21T19:51:22.744Z,1.83
2018-12-21T19:53:51.158Z,2.47
2018-12-21T19:56:30.678Z,3.50
2018-12-21T19:58:59.180Z,2.20
2018-12-21T20:01:27.620Z,2.20
2018-12-21T20:03:56.057Z,2.20
2018-12-21T20:06:24.469Z,1.23
2018-12-21T20:08:52.864Z,2.90
2018-12-21T20:11:21.276Z,1.90
2018-12-21T20:13:49.675Z,1.10
2018-12-21T20:16:18.066Z,1.40
2018-12-21T20:18:47.656Z,1.10
2018-12-21T20:21:16.329Z,1.53
2018-12-21T20:23:44.815Z,1.10
2018-12-21T20:26:13.268Z,1.53
2018-12-21T20:28:41.679Z,1.40
2018-12-21T20:31:10.136Z,1.87
2018-12-21T20:33:38.524Z,1.97
2018-12-21T20:36:07.169Z,2.40
2018-12-21T20:38:35.696Z,1.50
2018-12-21T20:41:07.868Z,1.10
2018-12-21T20:43:36.257Z,1.73
2018-12-21T20:46:04.785Z,1.27
2018-12-21T20:48:33.192Z,0.53
2018-12-21T20:51:01.774Z,0.80
2018-12-21T20:53:30.236Z,0.97
2018-12-21T20:55:58.659Z,2.50
2018-12-21T20:58:43.065Z,1.37
2018-12-21T21:01:11.482Z,0.90
2018-12-21T21:03:39.931Z,5.77
2018-12-21T21:06:08.332Z,1.70
2018-12-21T21:08:37.156Z,1.17
2018-12-21T21:11:05.660Z,1.20
2018-12-21T21:13:34.090Z,0.70
2018-12-21T21:16:02.476Z,1.00
2018-12-21T21:18:30.925Z,1.27
2018-12-21T21:20:59.290Z,1.30
2018-12-21T21:23:27.680Z,0.73
2018-12-21T21:25:56.077Z,0.83
2018-12-21T21:28:24.468Z,0.77
2018-12-21T21:30:52.879Z,1.00
2018-12-21T21:33:21.325Z,1.00
2018-12-21T21:35:49.870Z,1.27
2018-12-21T21:38:18.272Z,1.60
2018-12-21T21:40:46.680Z,1.47
2018-12-21T21:43:17.478Z,0.90
2018-12-21T21:45:45.852Z,0.90
2018-12-21T21:48:14.256Z,0.87
2018-12-21T21:50:42.632Z,1.33
2018-12-21T21:53:11.043Z,1.03
2018-12-21T21:55:39.468Z,0.97
2018-12-21T21:58:07.872Z,1.13
2018-12-21T22:00:36.325Z,0.77
2018-12-21T22:03:04.833Z,1.10
2018-12-21T22:05:33.256Z,1.70
2018-12-21T22:08:01.704Z,1.20
2018-12-21T22:10:30.081Z,1.10
2018-12-21T22:12:58.535Z,1.30
2018-12-21T22:15:26.942Z,1.50
2018-12-21T22:17:55.372Z,2.07
2018-12-21T22:20:23.852Z,1.83
2018-12-21T22:22:52.307Z,1.80
2018-12-21T22:25:20.692Z,1.27
2018-12-21T22:27:49.111Z,0.90
2018-12-21T22:30:17.476Z,1.10
2018-12-21T22:32:46.196Z,0.60
2018-12-21T22:35:14.610Z,0.93
2018-12-21T22:37:43.224Z,0.70
2018-12-21T22:40:11.621Z,0.90
2018-12-21T22:42:40.060Z,1.30
2018-12-21T22:45:08.542Z,1.20
2018-12-21T22:47:36.921Z,1.40
2018-12-21T22:50:06.800Z,1.30
2018-12-21T22:52:35.212Z,1.80
2018-12-21T22:55:03.752Z,2.00
2018-12-21T22:57:32.126Z,1.57
2018-12-21T23:00:00.674Z,1.63
2018-12-21T23:02:29.248Z,1.03
2018-12-21T23:04:57.755Z,1.20
2018-12-21T23:07:26.198Z,0.90
2018-12-21T23:09:54.591Z,0.70
2018-12-21T23:12:22.952Z,1.73
2018-12-21T23:14:51.332Z,1.40
2018-12-21T23:17:19.692Z,1.50
2018-12-21T23:19:48.141Z,1.50
2018-12-21T23:22:16.506Z,1.77
2018-12-21T23:24:45.069Z,1.57
2018-12-21T23:27:13.428Z,1.93
2018-12-21T23:29:41.819Z,2.30
2018-12-21T23:32:10.200Z,2.07
2018-12-21T23:34:38.627Z,2.87
2018-12-21T23:37:06.996Z,2.87
2018-12-21T23:39:35.393Z,2.50
2018-12-21T23:42:03.769Z,3.27
2018-12-21T23:44:32.175Z,2.57
2018-12-21T23:47:00.687Z,2.60
2018-12-21T23:49:29.100Z,2.33
2018-12-21T23:51:57.582Z,2.17
2018-12-21T23:54:26.003Z,1.50
2018-12-21T23:56:54.344Z,1.40
2018-12-21T23:59:22.880Z,1.50
